createdAt,value
2019-05-21T00:00:58.259Z,29
2019-05-21T00:06:00.724Z,28
2019-05-21T00:11:03.207Z,27
2019-05-21T00:16:05.613Z,20
2019-05-21T00:21:08.148Z,24
2019-05-21T00:26:10.526Z,22
2019-05-21T00:31:13.002Z,24
2019-05-21T00:36:15.462Z,23
2019-05-21T00:41:17.946Z,27
2019-05-21T00:46:20.476Z,27
2019-05-21T00:51:23.009Z,30
2019-05-21T00:56:25.274Z,27
2019-05-21T01:01:28.098Z,33
2019-05-21T01:06:30.322Z,30
2019-05-21T01:11:32.695Z,32
2019-05-21T01:16:35.118Z,33
2019-05-21T01:21:37.704Z,35
2019-05-21T01:26:40.045Z,33
2019-05-21T01:31:42.485Z,38
2019-05-21T01:36:44.977Z,37
2019-05-21T01:41:47.443Z,39
2019-05-21T01:46:49.956Z,34
2019-05-21T01:51:52.417Z,36
2019-05-21T01:56:54.779Z,27
2019-05-21T02:01:57.254Z,36
2019-05-21T02:06:59.713Z,32
2019-05-21T02:12:02.176Z,31
2019-05-21T02:17:04.605Z,29
2019-05-21T02:22:07.159Z,30
2019-05-21T02:27:09.557Z,31
2019-05-21T02:32:11.981Z,34
2019-05-21T02:37:14.466Z,35
2019-05-21T02:42:16.882Z,32
2019-05-21T02:47:19.361Z,35
2019-05-21T02:52:21.838Z,34
2019-05-21T02:57:24.280Z,30
2019-05-21T03:02:26.733Z,26
2019-05-21T03:07:29.186Z,24
2019-05-21T03:12:31.653Z,22
2019-05-21T03:17:34.113Z,21
2019-05-21T03:22:36.610Z,22
2019-05-21T03:27:39.026Z,23
2019-05-21T03:32:41.473Z,22
2019-05-21T03:37:43.949Z,23
2019-05-21T03:42:46.381Z,27
2019-05-21T03:47:48.829Z,31
2019-05-21T03:52:51.380Z,32
2019-05-21T03:57:53.832Z,29
2019-05-21T04:02:56.214Z,36
2019-05-21T04:07:58.729Z,43
2019-05-21T04:13:01.189Z,58
2019-05-21T04:18:03.626Z,51
2019-05-21T04:23:06.075Z,56
2019-05-21T04:28:08.530Z,62
2019-05-21T04:33:10.976Z,47
2019-05-21T04:38:13.440Z,44
2019-05-21T04:43:15.909Z,37
2019-05-21T04:48:18.370Z,38
2019-05-21T04:53:20.799Z,30
2019-05-21T04:58:23.256Z,23
2019-05-21T05:08:28.160Z,21
2019-05-21T05:13:30.624Z,20
2019-05-21T05:18:33.096Z,18
2019-05-21T05:23:35.533Z,15
2019-05-21T05:28:38.018Z,18
2019-05-21T05:33:40.447Z,17
2019-05-21T05:38:42.897Z,17
2019-05-21T05:43:45.353Z,15
2019-05-21T05:48:47.834Z,16
2019-05-21T05:53:50.286Z,12
2019-05-21T05:58:52.849Z,16
2019-05-21T06:03:55.187Z,16
2019-05-21T06:08:57.689Z,17
2019-05-21T06:14:00.133Z,16
2019-05-21T06:19:03.037Z,15
2019-05-21T06:24:05.040Z,16
2019-05-21T06:29:07.495Z,16
2019-05-21T06:34:09.939Z,15
2019-05-21T06:39:12.441Z,15
2019-05-21T06:44:14.878Z,14
2019-05-21T06:49:17.352Z,15
2019-05-21T06:54:19.779Z,15
2019-05-21T06:59:22.243Z,14
2019-05-21T07:04:24.738Z,13
2019-05-21T07:09:27.183Z,13
2019-05-21T07:14:29.599Z,9
2019-05-21T07:19:32.075Z,9
2019-05-21T07:24:34.542Z,11
2019-05-21T07:29:37.019Z,10
2019-05-21T07:34:39.447Z,10
2019-05-21T07:39:42.043Z,12
2019-05-21T07:44:44.458Z,11
2019-05-21T07:49:46.828Z,10
2019-05-21T07:54:49.345Z,10
2019-05-21T07:59:51.783Z,11
2019-05-21T08:04:54.252Z,12
2019-05-21T08:09:56.863Z,13
2019-05-21T08:14:59.126Z,13
2019-05-21T08:20:08.975Z,11
2019-05-21T08:25:05.101Z,12
2019-05-21T08:30:06.631Z,13
2019-05-21T08:35:08.973Z,10
2019-05-21T08:40:11.455Z,10
2019-05-21T08:45:13.904Z,10
2019-05-21T08:50:16.334Z,9
2019-05-21T08:55:18.964Z,9
2019-05-21T09:00:21.247Z,11
2019-05-21T09:05:23.877Z,14
2019-05-21T09:15:28.666Z,12
2019-05-21T09:20:31.082Z,8
2019-05-21T09:25:33.667Z,8
2019-05-21T09:30:36.013Z,6
2019-05-21T09:35:38.488Z,6
2019-05-21T09:40:40.942Z,6
2019-05-21T09:50:45.835Z,7
2019-05-21T09:55:48.296Z,7
2019-05-21T10:00:50.770Z,7
2019-05-21T10:05:53.249Z,9
2019-05-21T10:10:55.700Z,8
2019-05-21T10:16:01.141Z,9
2019-05-21T10:21:00.748Z,10
2019-05-21T10:26:03.044Z,10
2019-05-21T10:31:05.554Z,10
2019-05-21T10:36:07.977Z,10
2019-05-21T10:41:10.453Z,10
2019-05-21T10:46:12.865Z,10
2019-05-21T10:51:15.418Z,11
2019-05-21T10:56:17.798Z,10
2019-05-21T11:01:20.278Z,10
2019-05-21T11:06:22.746Z,12
2019-05-21T11:11:25.192Z,12
2019-05-21T11:16:27.647Z,12
2019-05-21T11:21:30.130Z,11
2019-05-21T11:26:32.559Z,10
2019-05-21T11:31:35.012Z,8
2019-05-21T11:36:37.573Z,7
2019-05-21T11:41:39.939Z,7
2019-05-21T11:46:42.405Z,6
2019-05-21T11:51:44.852Z,6
2019-05-21T11:56:47.314Z,5
2019-05-21T12:01:49.794Z,4
2019-05-21T12:06:52.254Z,5
2019-05-21T12:11:54.827Z,4
2019-05-21T12:16:57.171Z,3
2019-05-21T12:21:59.611Z,3
2019-05-21T12:27:02.129Z,4
2019-05-21T12:32:04.543Z,4
2019-05-21T12:37:07.037Z,4
2019-05-21T12:42:09.491Z,5
2019-05-21T12:47:11.922Z,4
2019-05-21T12:52:14.394Z,5
2019-05-21T12:57:16.857Z,4
2019-05-21T13:02:19.322Z,5
2019-05-21T13:07:21.986Z,6
2019-05-21T13:12:24.230Z,6
2019-05-21T13:17:26.725Z,5
2019-05-21T13:22:29.353Z,6
2019-05-21T13:27:31.628Z,6
2019-05-21T13:32:34.096Z,7
2019-05-21T13:37:36.576Z,7
2019-05-21T13:42:38.973Z,8
2019-05-21T13:47:41.540Z,8
2019-05-21T13:52:43.965Z,9
2019-05-21T13:57:46.364Z,8
2019-05-21T14:02:48.835Z,8
2019-05-21T14:07:51.289Z,9
2019-05-21T14:12:53.769Z,8
2019-05-21T14:17:56.246Z,8
2019-05-21T14:22:58.669Z,11
2019-05-21T14:28:01.112Z,8
2019-05-21T14:33:03.582Z,8
2019-05-21T14:38:06.053Z,8
2019-05-21T14:43:08.606Z,8
2019-05-21T14:48:10.986Z,7
2019-05-21T14:53:13.492Z,6
2019-05-21T14:58:15.865Z,6
2019-05-21T15:03:25.087Z,6
2019-05-21T15:08:20.783Z,6
2019-05-21T15:13:23.328Z,7
2019-05-21T15:18:25.741Z,8
2019-05-21T15:23:28.183Z,8
2019-05-21T15:28:30.640Z,8
2019-05-21T15:33:33.314Z,8
2019-05-21T15:38:49.095Z,8
2019-05-21T15:43:38.041Z,8
2019-05-21T15:48:40.524Z,7
2019-05-21T15:53:43.073Z,7
2019-05-21T15:58:45.379Z,6
2019-05-21T16:03:47.872Z,7
2019-05-21T16:08:50.414Z,7
2019-05-21T16:13:52.796Z,7
2019-05-21T16:18:55.231Z,9
2019-05-21T16:23:57.668Z,7
2019-05-21T16:29:00.204Z,7
2019-05-21T16:34:02.596Z,8
2019-05-21T16:39:05.086Z,8
2019-05-21T16:44:07.533Z,8
2019-05-21T16:49:10.086Z,8
2019-05-21T16:54:12.439Z,7
2019-05-21T16:59:14.886Z,8
2019-05-21T17:04:17.358Z,8
2019-05-21T17:09:19.815Z,8
2019-05-21T17:14:22.265Z,8
2019-05-21T17:19:24.724Z,9
2019-05-21T17:24:28.664Z,8
2019-05-21T17:29:29.642Z,8
2019-05-21T17:34:32.130Z,7
2019-05-21T17:39:34.586Z,7
2019-05-21T17:44:37.219Z,6
2019-05-21T17:49:39.489Z,8
2019-05-21T17:54:55.448Z,9
2019-05-21T17:59:44.467Z,10
2019-05-21T18:04:46.875Z,8
2019-05-21T18:09:49.371Z,8
2019-05-21T18:14:51.818Z,8
2019-05-21T18:19:54.427Z,7
2019-05-21T18:24:56.679Z,7
2019-05-21T18:29:59.305Z,8
2019-05-21T18:35:01.643Z,8
2019-05-21T18:40:04.077Z,11
2019-05-21T18:45:06.568Z,9
2019-05-21T18:50:09.272Z,10
2019-05-21T18:55:11.448Z,9
2019-05-21T19:00:13.915Z,9
2019-05-21T19:05:16.352Z,10
2019-05-21T19:10:18.794Z,11
2019-05-21T19:15:21.286Z,17
2019-05-21T19:20:23.739Z,13
2019-05-21T19:25:26.166Z,19
2019-05-21T19:30:28.649Z,20
2019-05-21T19:35:33.114Z,20
2019-05-21T19:40:33.579Z,23
2019-05-21T19:45:36.074Z,26
2019-05-21T19:50:38.497Z,27
2019-05-21T19:55:40.922Z,27
2019-05-21T20:00:43.377Z,30
2019-05-21T20:05:45.844Z,32
2019-05-21T20:10:48.317Z,36
2019-05-21T20:15:50.817Z,36
2019-05-21T20:20:53.228Z,35
2019-05-21T20:25:56.935Z,41
2019-05-21T20:30:58.156Z,38
2019-05-21T20:36:00.619Z,40
2019-05-21T20:41:03.093Z,39
2019-05-21T20:46:05.565Z,37
2019-05-21T20:51:08.006Z,39
2019-05-21T20:56:10.431Z,39
2019-05-21T21:01:12.870Z,37
2019-05-21T21:06:15.387Z,42
2019-05-21T21:11:17.821Z,45
2019-05-21T21:16:20.291Z,51
2019-05-21T21:21:22.773Z,50
2019-05-21T21:26:25.204Z,56
2019-05-21T21:31:27.734Z,51
2019-05-21T21:36:30.104Z,48
2019-05-21T21:41:32.543Z,46
2019-05-21T21:46:35.033Z,53
2019-05-21T21:51:37.484Z,50
2019-05-21T21:56:39.906Z,45
2019-05-21T22:01:42.376Z,49
2019-05-21T22:06:44.871Z,48
2019-05-21T22:11:47.296Z,47
2019-05-21T22:16:51.651Z,41
2019-05-21T22:21:52.228Z,45
2019-05-21T22:26:54.799Z,41
2019-05-21T22:31:57.141Z,53
2019-05-21T22:36:59.619Z,59
2019-05-21T22:42:02.150Z,45
2019-05-21T22:47:04.541Z,46
2019-05-21T22:52:07.031Z,50
2019-05-21T22:57:09.424Z,40
2019-05-21T23:02:11.882Z,42
2019-05-21T23:07:14.349Z,44
2019-05-21T23:12:16.787Z,48
2019-05-21T23:17:19.310Z,51
2019-05-21T23:22:21.786Z,48
2019-05-21T23:27:24.187Z,49
2019-05-21T23:37:29.097Z,58
2019-05-21T23:42:31.585Z,56
2019-05-21T23:47:34.014Z,63
2019-05-21T23:52:37.166Z,71
2019-05-21T23:57:38.935Z,52
